createdAt,value
2022-09-26T00:00:21.267Z,101054.63
2022-09-26T00:02:50.938Z,101048.47
2022-09-26T00:05:20.594Z,101046.72
2022-09-26T00:07:50.206Z,101038.81
2022-09-26T00:10:20.066Z,101037.06
2022-09-26T00:12:49.736Z,101031.81
2022-09-26T00:15:21.900Z,101033.56
2022-09-26T00:17:51.792Z,101022.16
2022-09-26T00:20:21.662Z,101018.69
2022-09-26T00:22:51.211Z,101020.44
2022-09-26T00:25:21.054Z,101008.16
2022-09-26T00:27:50.589Z,101009.94
2022-09-26T00:30:22.741Z,101000.25
2022-09-26T00:32:52.914Z,100995.03
2022-09-26T00:35:22.571Z,100981.00
2022-09-26T00:37:52.104Z,100973.09
2022-09-26T00:40:27.143Z,100967.88
2022-09-26T00:42:57.254Z,100957.34
2022-09-26T00:45:33.390Z,100965.22
2022-09-26T00:48:08.221Z,100951.16
2022-09-26T00:50:40.649Z,100941.53
2022-09-26T00:53:14.498Z,100943.25
2022-09-26T00:55:48.393Z,100930.16
2022-09-26T00:58:23.269Z,100931.00
2022-09-26T01:00:56.305Z,100923.13
2022-09-26T01:03:27.097Z,100915.25
2022-09-26T01:05:57.671Z,100901.22
2022-09-26T01:08:34.887Z,100893.34
2022-09-26T01:11:05.629Z,100881.00
2022-09-26T01:13:37.061Z,100884.56
2022-09-26T01:16:09.719Z,100872.25
2022-09-26T01:18:39.701Z,100877.56
2022-09-26T01:21:28.217Z,100868.78
2022-09-26T01:24:29.261Z,100853.94
2022-09-26T01:27:18.669Z,100825.03
2022-09-26T01:30:09.030Z,100816.25
2022-09-26T01:32:57.363Z,100830.28
2022-09-26T01:35:54.398Z,100820.63
2022-09-26T01:38:33.363Z,100813.63
2022-09-26T01:41:15.359Z,100810.13
2022-09-26T01:43:53.069Z,100817.13
2022-09-26T01:46:34.650Z,100803.09
2022-09-26T01:49:14.342Z,100808.41
2022-09-26T01:51:51.958Z,100811.00
2022-09-26T01:54:26.028Z,100810.94
2022-09-26T01:56:59.918Z,100809.25
2022-09-26T01:59:33.934Z,100808.31
2022-09-26T02:02:10.423Z,100805.69
2022-09-26T02:04:44.320Z,100789.91
2022-09-26T02:07:18.122Z,100789.06
2022-09-26T02:09:52.329Z,100778.53
2022-09-26T02:12:26.553Z,100770.63
2022-09-26T02:15:00.902Z,100757.50
2022-09-26T02:17:38.427Z,100762.75
2022-09-26T02:20:15.062Z,100752.25
2022-09-26T02:22:45.571Z,100751.38
2022-09-26T02:25:16.709Z,100735.63
2022-09-26T02:27:46.429Z,100733.03
2022-09-26T02:30:16.642Z,100730.41
2022-09-26T02:32:48.981Z,100734.81
2022-09-26T02:35:31.963Z,100732.19
2022-09-26T02:38:01.787Z,100724.31
2022-09-26T02:40:40.767Z,100719.91
2022-09-26T02:43:31.789Z,100711.13
2022-09-26T02:46:12.474Z,100712.06
2022-09-26T02:48:57.517Z,100699.88
2022-09-26T02:51:49.910Z,100694.56
2022-09-26T02:54:26.516Z,100689.28
2022-09-26T02:57:11.565Z,100678.78
2022-09-26T02:59:52.221Z,100676.16
2022-09-26T03:02:27.179Z,100667.44
2022-09-26T03:05:05.672Z,100663.91
2022-09-26T03:07:45.324Z,100656.00
2022-09-26T03:10:17.063Z,100648.13
2022-09-26T03:12:53.228Z,100643.72
2022-09-26T03:15:27.507Z,100642.00
2022-09-26T03:18:03.622Z,100633.25
2022-09-26T03:20:37.491Z,100620.13
2022-09-26T03:23:07.070Z,100626.25
2022-09-26T03:25:36.922Z,100621.88
2022-09-26T03:28:06.978Z,100613.13
2022-09-26T03:30:36.913Z,100596.47
2022-09-26T03:33:06.687Z,100599.97
2022-09-26T03:35:38.828Z,100593.84
2022-09-26T03:38:13.613Z,100571.94
2022-09-26T03:40:44.450Z,100580.72
2022-09-26T03:43:27.929Z,100574.59
2022-09-26T03:46:00.588Z,100568.44
2022-09-26T03:48:42.059Z,100563.19
2022-09-26T03:51:16.527Z,100555.31
2022-09-26T03:53:49.212Z,100551.78
2022-09-26T03:56:22.606Z,100555.19
2022-09-26T03:58:55.634Z,100538.53
2022-09-26T04:01:39.590Z,100529.75
2022-09-26T04:04:09.365Z,100529.72
2022-09-26T04:06:42.246Z,100523.59
2022-09-26T04:09:16.772Z,100527.97
2022-09-26T04:11:49.328Z,100505.19
2022-09-26T04:14:20.363Z,100500.81
2022-09-26T04:16:54.508Z,100487.66
2022-09-26T04:19:24.662Z,100491.19
2022-09-26T04:21:57.929Z,100484.13
2022-09-26T04:24:30.279Z,100471.00
2022-09-26T04:27:13.296Z,100475.41
2022-09-26T04:29:44.765Z,100468.38
2022-09-26T04:32:17.130Z,100464.00
2022-09-26T04:34:46.914Z,100458.75
2022-09-26T04:37:21.179Z,100451.75
2022-09-26T04:39:50.960Z,100436.03
2022-09-26T04:42:20.879Z,100430.78
2022-09-26T04:44:50.766Z,100413.28
2022-09-26T04:47:20.726Z,100420.28
2022-09-26T04:49:50.529Z,100415.91
2022-09-26T04:52:22.953Z,100417.66
2022-09-26T04:54:52.613Z,100415.91
2022-09-26T04:57:22.178Z,100403.66
2022-09-26T04:59:52.270Z,100402.75
2022-09-26T05:02:22.015Z,100402.75
2022-09-26T05:04:51.660Z,100390.50
2022-09-26T05:07:23.938Z,100390.50
2022-09-26T05:09:53.806Z,100384.38
2022-09-26T05:12:23.442Z,100375.59
2022-09-26T05:14:56.729Z,100377.34
2022-09-26T05:17:30.282Z,100372.09
2022-09-26T05:20:12.055Z,100363.34
2022-09-26T05:22:47.751Z,100362.47
2022-09-26T05:25:43.132Z,100344.97
2022-09-26T05:28:17.741Z,100344.94
2022-09-26T05:30:49.915Z,100330.09
2022-09-26T05:33:30.832Z,100334.44
2022-09-26T05:36:03.588Z,100326.56
2022-09-26T05:38:42.732Z,100324.84
2022-09-26T05:41:12.327Z,100317.84
2022-09-26T05:43:44.410Z,100319.59
2022-09-26T05:46:22.537Z,100303.84
2022-09-26T05:48:58.296Z,100295.97
2022-09-26T05:51:34.758Z,100295.09
2022-09-26T05:54:16.660Z,100284.59
2022-09-26T05:56:50.159Z,100279.34
2022-09-26T05:59:24.273Z,100278.47
2022-09-26T06:02:02.938Z,100276.72
2022-09-26T06:04:33.736Z,100277.59
2022-09-26T06:07:05.589Z,100266.22
2022-09-26T06:09:38.228Z,100273.22
2022-09-26T06:12:17.855Z,100257.47
2022-09-26T06:14:47.905Z,100250.47
2022-09-26T06:17:18.438Z,100248.72
2022-09-26T06:19:48.483Z,100243.47
2022-09-26T06:22:18.965Z,100248.75
2022-09-26T06:24:51.941Z,100240.88
2022-09-26T06:27:22.631Z,100233.88
2022-09-26T06:29:55.719Z,100219.00
2022-09-26T06:32:25.683Z,100220.75
2022-09-26T06:34:59.081Z,100210.25
2022-09-26T06:37:28.678Z,100205.00
2022-09-26T06:40:04.144Z,100198.00
2022-09-26T06:42:38.198Z,100191.00
2022-09-26T06:45:10.020Z,100182.25
2022-09-26T06:47:41.857Z,100180.50
2022-09-26T06:50:16.206Z,100162.13
2022-09-26T06:52:46.316Z,100152.47
2022-09-26T06:55:19.296Z,100148.09
2022-09-26T06:57:49.213Z,100143.69
2022-09-26T07:00:19.581Z,100129.66
2022-09-26T07:02:53.626Z,100135.78
2022-09-26T07:05:28.175Z,100134.03
2022-09-26T07:07:58.563Z,100136.63
2022-09-26T07:10:32.295Z,100134.03
2022-09-26T07:13:07.245Z,100127.00
2022-09-26T07:15:38.592Z,100130.53
2022-09-26T07:18:12.207Z,100124.41
2022-09-26T07:20:47.444Z,100119.13
2022-09-26T07:23:20.222Z,100112.09
2022-09-26T07:25:54.091Z,100112.13
2022-09-26T07:28:24.443Z,100102.50
2022-09-26T07:31:02.360Z,100097.22
2022-09-26T07:33:41.236Z,100091.97
2022-09-26T07:36:11.504Z,100099.84
2022-09-26T07:38:41.111Z,100092.00
2022-09-26T07:41:14.138Z,100097.22
2022-09-26T07:46:46.720Z,100088.47
2022-09-26T07:49:28.904Z,100085.84
2022-09-26T07:52:00.742Z,100078.84
2022-09-26T07:54:30.226Z,100071.81
2022-09-26T07:57:04.948Z,100071.81
2022-09-26T07:59:36.856Z,100075.31
2022-09-26T08:02:06.683Z,100083.22
2022-09-26T08:04:36.279Z,100080.59
2022-09-26T08:07:06.011Z,100072.72
2022-09-26T08:09:36.554Z,100071.88
2022-09-26T08:12:08.864Z,100079.75
2022-09-26T08:14:39.885Z,100059.63
2022-09-26T08:17:14.085Z,100071.00
2022-09-26T08:19:44.312Z,100057.03
2022-09-26T08:22:15.350Z,100061.41
2022-09-26T08:24:50.383Z,100049.16
2022-09-26T08:27:22.751Z,100045.63
2022-09-26T08:29:52.745Z,100051.78
2022-09-26T08:32:23.964Z,100054.41
2022-09-26T08:34:53.778Z,100043.03
2022-09-26T08:37:23.394Z,100046.53
2022-09-26T08:39:53.254Z,100036.91
2022-09-26T08:42:43.287Z,100029.00
2022-09-26T08:45:51.681Z,100019.34
2022-09-26T08:48:47.598Z,100022.00
2022-09-26T08:51:29.371Z,100006.22
2022-09-26T08:54:05.835Z,100014.97
2022-09-26T08:56:42.196Z,100011.50
2022-09-26T08:59:20.931Z,100010.59
2022-09-26T09:01:52.884Z,99992.22
2022-09-26T09:04:27.273Z,99995.72
2022-09-26T09:07:07.297Z,99986.91
2022-09-26T09:09:36.924Z,99994.78
2022-09-26T09:12:17.065Z,99995.59
2022-09-26T09:15:24.613Z,99986.78
2022-09-26T09:18:12.656Z,99982.41
2022-09-26T09:20:56.904Z,99977.19
2022-09-26T09:23:38.492Z,99982.44
2022-09-26T09:29:19.904Z,99970.19
2022-09-26T09:31:52.790Z,99979.84
2022-09-26T09:34:27.936Z,99979.88
2022-09-26T09:37:00.750Z,99985.13
2022-09-26T09:39:34.247Z,99970.28
2022-09-26T09:42:08.793Z,99970.25
2022-09-26T09:44:46.884Z,99973.81
2022-09-26T09:47:21.668Z,99974.66
2022-09-26T09:49:52.912Z,99968.56
2022-09-26T09:52:45.108Z,99962.41
2022-09-26T09:55:25.927Z,99951.91
2022-09-26T09:58:10.092Z,99951.06
2022-09-26T10:00:49.057Z,99964.22
2022-09-26T10:03:29.708Z,99955.41
2022-09-26T10:06:02.922Z,99949.28
2022-09-26T10:08:35.057Z,99952.81
2022-09-26T10:11:14.428Z,99952.78
2022-09-26T10:13:45.456Z,99949.28
2022-09-26T10:16:16.536Z,99944.94
2022-09-26T10:19:03.640Z,99938.81
2022-09-26T10:21:39.383Z,99945.78
2022-09-26T10:24:24.070Z,99941.44
2022-09-26T10:26:54.532Z,99933.53
2022-09-26T10:29:27.611Z,99935.31
2022-09-26T10:32:01.750Z,99938.78
2022-09-26T10:34:35.646Z,99945.81
2022-09-26T10:37:24.114Z,99937.91
2022-09-26T10:40:10.910Z,99942.28
2022-09-26T10:42:40.666Z,99932.66
2022-09-26T10:45:17.593Z,99935.28
2022-09-26T10:47:51.470Z,99937.03
2022-09-26T10:50:29.524Z,99928.28
2022-09-26T10:53:05.257Z,99931.75
2022-09-26T10:55:40.228Z,99926.50
2022-09-26T10:58:17.555Z,99930.88
2022-09-26T11:00:51.699Z,99927.38
2022-09-26T11:03:24.830Z,99928.25
2022-09-26T11:05:57.486Z,99930.84
2022-09-26T11:08:29.601Z,99924.72
2022-09-26T11:11:01.301Z,99922.13
2022-09-26T11:13:32.812Z,99927.31
2022-09-26T11:16:04.478Z,99928.22
2022-09-26T11:18:51.107Z,99921.19
2022-09-26T11:21:29.838Z,99922.06
2022-09-26T11:24:06.235Z,99926.44
2022-09-26T11:26:42.050Z,99922.97
2022-09-26T11:29:20.329Z,99923.81
2022-09-26T11:31:50.231Z,99917.69
2022-09-26T11:34:27.637Z,99911.50
2022-09-26T11:37:17.126Z,99913.25
2022-09-26T11:40:06.081Z,99912.38
2022-09-26T11:42:55.799Z,99904.47
2022-09-26T11:45:37.741Z,99903.59
2022-09-26T11:48:31.747Z,99903.59
2022-09-26T11:51:08.183Z,99895.66
2022-09-26T11:54:04.459Z,99883.34
2022-09-26T11:56:49.446Z,99883.19
2022-09-26T11:59:40.455Z,99879.59
2022-09-26T12:02:40.007Z,99876.09
2022-09-26T12:05:43.885Z,99877.00
2022-09-26T12:08:25.271Z,99886.59
2022-09-26T12:11:07.238Z,99886.63
2022-09-26T12:13:52.503Z,99894.50
2022-09-26T12:16:29.314Z,99890.97
2022-09-26T12:19:08.114Z,99887.44
2022-09-26T12:22:09.900Z,99885.59
2022-09-26T12:24:46.060Z,99889.00
2022-09-26T12:27:27.221Z,99881.97
2022-09-26T12:30:06.946Z,99876.66
2022-09-26T12:32:58.355Z,99876.59
2022-09-26T12:35:46.854Z,99869.47
2022-09-26T12:38:34.980Z,99865.97
2022-09-26T12:41:32.956Z,99868.50
2022-09-26T12:44:23.625Z,99868.44
2022-09-26T12:47:06.504Z,99856.88
2022-09-26T12:49:59.887Z,99851.53
2022-09-26T12:52:44.828Z,99841.75
2022-09-26T12:55:34.222Z,99838.25
2022-09-26T12:58:17.296Z,99845.06
2022-09-26T13:01:00.561Z,99844.13
2022-09-26T13:03:58.222Z,99846.53
2022-09-26T13:07:17.950Z,99832.81
2022-09-26T13:10:06.478Z,99831.56
2022-09-26T13:12:51.099Z,99829.72
2022-09-26T13:15:31.331Z,99828.03
2022-09-26T13:18:08.943Z,99813.97
2022-09-26T13:20:45.145Z,99805.91
2022-09-26T13:23:23.957Z,99797.72
2022-09-26T13:25:57.231Z,99799.25
2022-09-26T13:28:37.965Z,99798.47
2022-09-26T13:31:18.988Z,99793.34
2022-09-26T13:33:57.556Z,99795.16
2022-09-26T13:36:31.276Z,99790.09
2022-09-26T13:39:04.461Z,99786.81
2022-09-26T13:41:45.701Z,99794.00
2022-09-26T13:44:29.845Z,99807.38
2022-09-26T13:47:13.166Z,99821.66
2022-09-26T13:49:59.277Z,99831.75
2022-09-26T13:52:42.132Z,99839.31
2022-09-26T13:55:19.486Z,99837.75
2022-09-26T13:58:07.364Z,99833.50
2022-09-26T14:00:57.694Z,99820.47
2022-09-26T14:03:48.259Z,99817.66
2022-09-26T14:06:41.219Z,99820.22
2022-09-26T14:09:24.137Z,99813.09
2022-09-26T14:12:20.099Z,99809.72
2022-09-26T14:15:09.817Z,99806.06
2022-09-26T14:18:10.838Z,99805.09
2022-09-26T14:21:05.631Z,99799.78
2022-09-26T14:23:46.632Z,99800.59
2022-09-26T14:26:21.579Z,99799.03
2022-09-26T14:28:56.535Z,99792.72
2022-09-26T14:32:01.806Z,99788.34
2022-09-26T14:34:35.476Z,99784.78
2022-09-26T14:37:06.451Z,99788.31
2022-09-26T14:39:46.434Z,99788.34
2022-09-26T14:42:25.690Z,99781.31
2022-09-26T14:45:00.534Z,99786.53
2022-09-26T14:47:33.266Z,99792.56
2022-09-26T14:50:07.067Z,99782.69
2022-09-26T14:52:39.898Z,99789.88
2022-09-26T14:55:19.421Z,99786.19
2022-09-26T14:57:49.669Z,99780.56
2022-09-26T15:00:41.783Z,99781.81
2022-09-26T15:03:20.188Z,99782.63
2022-09-26T15:05:50.718Z,99781.59
2022-09-26T15:08:28.114Z,99775.56
2022-09-26T15:11:01.738Z,99773.16
2022-09-26T15:13:39.921Z,99771.16
2022-09-26T15:16:22.070Z,99769.66
2022-09-26T15:18:55.532Z,99770.56
2022-09-26T15:21:35.639Z,99764.47
2022-09-26T15:24:07.619Z,99775.03
2022-09-26T15:26:40.307Z,99764.88
2022-09-26T15:29:10.307Z,99767.50
2022-09-26T15:31:42.383Z,99761.34
2022-09-26T15:34:19.269Z,99764.94
2022-09-26T15:36:53.975Z,99769.44
2022-09-26T15:39:41.353Z,99775.88
2022-09-26T15:42:41.816Z,99775.91
2022-09-26T15:45:27.276Z,99772.31
2022-09-26T15:47:59.084Z,99771.44
2022-09-26T15:50:32.522Z,99772.16
2022-09-26T15:53:08.109Z,99766.22
2022-09-26T15:55:42.721Z,99768.78
2022-09-26T15:58:21.319Z,99775.03
2022-09-26T16:00:54.511Z,99759.25
2022-09-26T16:03:57.553Z,99761.06
2022-09-26T16:06:30.614Z,99770.84
2022-09-26T16:09:09.409Z,99774.34
2022-09-26T16:11:47.559Z,99766.69
2022-09-26T16:14:29.230Z,99770.22
2022-09-26T16:17:06.197Z,99781.66
2022-09-26T16:19:38.134Z,99764.16
2022-09-26T16:22:36.602Z,99774.69
2022-09-26T16:25:26.121Z,99762.41
2022-09-26T16:28:03.071Z,99764.19
2022-09-26T16:30:44.558Z,99773.97
2022-09-26T16:33:31.711Z,99774.03
2022-09-26T16:36:17.395Z,99783.97
2022-09-26T16:38:53.051Z,99777.19
2022-09-26T16:44:32.142Z,99770.41
2022-09-26T16:47:09.269Z,99782.69
2022-09-26T16:49:50.464Z,99792.38
2022-09-26T16:52:32.888Z,99793.34
2022-09-26T16:55:05.999Z,99798.69
2022-09-26T16:57:37.935Z,99804.06
2022-09-26T17:00:23.252Z,99808.59
2022-09-26T17:02:55.769Z,99806.94
2022-09-26T17:05:25.438Z,99808.78
2022-09-26T17:07:55.051Z,99807.03
2022-09-26T17:10:28.409Z,99804.41
2022-09-26T17:13:02.740Z,99796.56
2022-09-26T17:15:35.503Z,99804.44
2022-09-26T17:18:10.665Z,99796.56
2022-09-26T17:20:41.881Z,99807.03
2022-09-26T17:23:34.948Z,99799.19
2022-09-26T17:26:02.968Z,99804.44
2022-09-26T17:28:38.267Z,99810.56
2022-09-26T17:31:10.311Z,99801.81
2022-09-26T17:33:44.346Z,99803.56
2022-09-26T17:36:21.017Z,99802.69
2022-09-26T17:38:50.726Z,99798.31
2022-09-26T17:41:20.404Z,99800.06
2022-09-26T17:43:59.003Z,99805.31
2022-09-26T17:46:28.945Z,99795.69
2022-09-26T17:49:05.302Z,99799.19
2022-09-26T17:51:36.279Z,99803.56
2022-09-26T17:54:07.622Z,99805.31
2022-09-26T17:56:37.266Z,99802.69
2022-09-26T17:59:09.510Z,99802.69
2022-09-26T18:01:39.308Z,99810.56
2022-09-26T18:04:17.544Z,99804.44
2022-09-26T18:06:47.642Z,99806.19
2022-09-26T18:09:18.524Z,99796.56
2022-09-26T18:12:01.109Z,99811.41
2022-09-26T18:14:33.371Z,99800.06
2022-09-26T18:17:04.334Z,99804.44
2022-09-26T18:19:38.329Z,99811.44
2022-09-26T18:22:12.155Z,99807.97
2022-09-26T18:24:41.810Z,99814.06
2022-09-26T18:27:17.868Z,99819.31
2022-09-26T18:29:50.070Z,99825.44
2022-09-26T18:32:26.088Z,99834.16
2022-09-26T18:34:58.301Z,99847.28
2022-09-26T18:37:29.336Z,99839.44
2022-09-26T18:40:03.817Z,99844.72
2022-09-26T18:42:35.341Z,99847.34
2022-09-26T18:45:08.237Z,99853.47
2022-09-26T18:47:42.561Z,99846.47
2022-09-26T18:50:24.725Z,99852.59
2022-09-26T18:52:54.344Z,99844.72
2022-09-26T18:55:38.557Z,99852.59
2022-09-26T18:58:20.662Z,99853.47
2022-09-26T19:00:50.869Z,99856.09
2022-09-26T19:03:21.248Z,99863.97
2022-09-26T19:05:54.972Z,99867.47
2022-09-26T19:08:34.069Z,99887.56
2022-09-26T19:11:13.049Z,99884.94
2022-09-26T19:13:43.230Z,99885.81
2022-09-26T19:16:14.335Z,99884.09
2022-09-26T19:18:45.227Z,99898.97
2022-09-26T19:21:26.817Z,99901.59
2022-09-26T19:23:56.859Z,99903.34
2022-09-26T19:26:30.158Z,99898.97
2022-09-26T19:29:02.043Z,99912.97
2022-09-26T19:31:32.134Z,99906.88
2022-09-26T19:34:01.771Z,99905.16
2022-09-26T19:36:34.128Z,99906.03
2022-09-26T19:39:04.231Z,99910.38
2022-09-26T19:41:34.080Z,99899.03
2022-09-26T19:44:05.654Z,99913.84
2022-09-26T19:46:35.370Z,99914.75
2022-09-26T19:49:05.410Z,99918.22
2022-09-26T19:51:41.142Z,99919.09
2022-09-26T19:54:16.786Z,99919.97
2022-09-26T19:56:46.928Z,99912.97
2022-09-26T19:59:17.501Z,99914.72
2022-09-26T20:01:48.853Z,99910.34
2022-09-26T20:04:21.376Z,99911.22
2022-09-26T20:06:53.688Z,99919.09
2022-09-26T20:09:23.260Z,99922.56
2022-09-26T20:11:52.778Z,99926.06
2022-09-26T20:14:28.039Z,99919.97
2022-09-26T20:17:00.720Z,99925.19
2022-09-26T20:19:36.364Z,99923.44
2022-09-26T20:22:14.549Z,99918.22
2022-09-26T20:24:44.452Z,99920.81
2022-09-26T20:27:20.066Z,99915.59
2022-09-26T20:30:03.025Z,99912.09
2022-09-26T20:32:32.770Z,99920.81
2022-09-26T20:35:03.214Z,99920.81
2022-09-26T20:37:39.339Z,99919.94
2022-09-26T20:40:18.194Z,99921.69
2022-09-26T20:42:50.910Z,99916.47
2022-09-26T20:45:23.778Z,99911.22
2022-09-26T20:47:53.376Z,99912.13
2022-09-26T20:50:23.319Z,99906.03
2022-09-26T20:52:55.434Z,99906.91
2022-09-26T20:55:25.428Z,99904.28
2022-09-26T20:57:55.074Z,99904.28
2022-09-26T21:00:27.382Z,99899.91
2022-09-26T21:02:57.333Z,99903.41
2022-09-26T21:05:29.684Z,99902.47
2022-09-26T21:08:03.169Z,99900.78
2022-09-26T21:10:34.730Z,99891.16
2022-09-26T21:13:05.218Z,99902.53
2022-09-26T21:15:36.358Z,99898.16
2022-09-26T21:18:06.103Z,99900.78
2022-09-26T21:20:37.198Z,99905.16
2022-09-26T21:23:13.007Z,99908.63
2022-09-26T21:25:42.553Z,99901.66
2022-09-26T21:28:26.299Z,99909.50
2022-09-26T21:30:57.482Z,99910.38
2022-09-26T21:33:27.439Z,99912.13
2022-09-26T21:35:57.039Z,99909.50
2022-09-26T21:38:29.243Z,99899.03
2022-09-26T21:41:02.266Z,99900.78
2022-09-26T21:43:36.181Z,99892.03
2022-09-26T21:46:06.122Z,99897.28
2022-09-26T21:48:36.369Z,99897.25
2022-09-26T21:51:07.818Z,99902.50
2022-09-26T21:53:46.067Z,99899.00
2022-09-26T21:56:22.217Z,99897.25
2022-09-26T21:58:53.223Z,99900.75
2022-09-26T22:01:22.838Z,99897.25
2022-09-26T22:03:53.043Z,99884.16
2022-09-26T22:06:22.698Z,99886.78
2022-09-26T22:08:54.848Z,99886.78
2022-09-26T22:11:24.403Z,99879.78
2022-09-26T22:13:54.178Z,99883.28
2022-09-26T22:16:23.788Z,99899.88
2022-09-26T22:18:53.371Z,99886.78
2022-09-26T22:21:23.290Z,99889.41
2022-09-26T22:23:56.112Z,99892.00
2022-09-26T22:26:26.423Z,99888.53
2022-09-26T22:28:55.968Z,99888.50
2022-09-26T22:31:25.634Z,99903.34
2022-09-26T22:33:58.403Z,99917.31
2022-09-26T22:36:28.548Z,99923.44
2022-09-26T22:39:04.439Z,99907.72
2022-09-26T22:41:34.282Z,99908.56
2022-09-26T22:44:06.796Z,99933.88
2022-09-26T22:46:37.132Z,99959.19
2022-09-26T22:49:06.950Z,99932.06
2022-09-26T22:51:36.646Z,99922.44
2022-09-26T22:54:08.842Z,99925.06
2022-09-26T22:56:38.803Z,99909.34
2022-09-26T22:59:08.840Z,99905.00
2022-09-26T23:01:38.992Z,99905.00
2022-09-26T23:04:08.908Z,99910.22
2022-09-26T23:06:38.805Z,99899.75
2022-09-26T23:09:11.443Z,99906.75
2022-09-26T23:11:41.074Z,99899.75
2022-09-26T23:14:11.002Z,99904.97
2022-09-26T23:16:40.882Z,99905.00
2022-09-26T23:19:10.507Z,99904.97
2022-09-26T23:21:40.270Z,99899.75
2022-09-26T23:24:12.738Z,99903.25
2022-09-26T23:26:42.270Z,99900.63
2022-09-26T23:29:11.997Z,99937.28
2022-09-26T23:31:41.668Z,99915.44
2022-09-26T23:34:11.889Z,99906.75
2022-09-26T23:36:41.550Z,99900.66
2022-09-26T23:39:13.995Z,99898.91
2022-09-26T23:41:43.580Z,99905.00
2022-09-26T23:44:13.177Z,99903.25
2022-09-26T23:46:42.744Z,99905.00
2022-09-26T23:49:12.277Z,99901.50
2022-09-26T23:51:42.596Z,99896.28
2022-09-26T23:54:14.800Z,99902.38
2022-09-26T23:56:44.482Z,99898.88
2022-09-26T23:59:14.195Z,99908.50
